Time;durP1;ratioP1;P1;durP2;ratioP2;P2;SDS_P1;SDS_P2;PMS_P1;PMS_P2;Temp;Humidity;BMP_temperature;BMP_pressure;BME280_temperature;BME280_humidity;BME280_pressure;Samples;Min_cycle;Max_cycle;Signal;HPM_P1;HPM_P2
2022/01/15 00:02:16;;;;;;;37.13;14.40;;;;;;;4.19;100.00;102130.84;5048599;28;20082;-82
2022/01/15 00:04:41;;;;;;;75.65;29.13;;;;;;;4.22;100.00;102143.97;5065681;28;20032;-80
2022/01/15 00:07:07;;;;;;;68.38;25.92;;;;;;;4.21;100.00;102136.94;5044602;28;20036;-79
2022/01/15 00:09:33;;;;;;;79.35;28.60;;;;;;;4.20;100.00;102119.25;5031693;28;20032;-84
2022/01/15 00:11:58;;;;;;;57.13;21.17;;;;;;;4.15;100.00;102119.56;5032699;28;20063;-79
2022/01/15 00:14:29;;;;;;;43.03;15.85;;;;;;;4.17;100.00;102114.97;5013492;28;20654;-82
2022/01/15 00:17:06;;;;;;;74.20;25.45;;;;;;;4.14;100.00;102107.19;5037775;28;20032;-80
2022/01/15 00:19:51;;;;;;;73.95;27.02;;;;;;;4.17;100.00;102114.97;5029457;28;20055;-80
2022/01/15 00:22:19;;;;;;;75.25;27.17;;;;;;;4.11;100.00;102099.41;5051161;28;20036;-78
2022/01/15 00:24:46;;;;;;;70.60;25.27;;;;;;;4.24;100.00;102106.59;5045659;28;20055;-78
2022/01/15 00:27:12;;;;;;;58.20;22.80;;;;;;;4.19;100.00;102097.09;5033304;28;20371;-82
2022/01/15 00:29:40;;;;;;;70.18;27.02;;;;;;;4.24;100.00;102096.81;5048254;28;20055;-78
2022/01/15 00:32:07;;;;;;;53.13;20.02;;;;;;;4.29;100.00;102097.34;5018413;28;20467;-82
2022/01/15 00:34:33;;;;;;;85.93;30.10;;;;;;;4.27;100.00;102101.91;5041668;28;20036;-78
2022/01/15 00:36:59;;;;;;;53.60;24.02;;;;;;;4.25;100.00;102097.66;5032627;28;20063;-79
2022/01/15 00:39:25;;;;;;;57.60;25.55;;;;;;;4.21;100.00;102093.47;5041790;28;20439;-79
2022/01/15 00:41:51;;;;;;;59.53;24.48;;;;;;;4.23;100.00;102089.75;5017317;28;20474;-80
2022/01/15 00:44:17;;;;;;;55.80;21.50;;;;;;;4.22;100.00;102088.06;5049528;28;20032;-81
2022/01/15 00:46:43;;;;;;;55.92;27.20;;;;;;;4.29;100.00;102081.38;5034567;28;20033;-81
2022/01/15 00:49:09;;;;;;;64.20;24.33;;;;;;;4.29;100.00;102084.03;5033516;28;20479;-78
2022/01/15 00:51:36;;;;;;;38.53;17.83;;;;;;;4.28;100.00;102076.97;5065137;28;20028;-81
2022/01/15 00:54:03;;;;;;;57.65;23.25;;;;;;;4.16;100.00;102049.38;5047553;28;20032;-78
2022/01/15 00:56:28;;;;;;;41.00;15.45;;;;;;;4.18;100.00;102055.47;5041592;28;20063;-79
2022/01/15 00:58:55;;;;;;;64.38;23.20;;;;;;;4.22;100.00;102049.94;5040987;28;20115;-77
2022/01/15 01:01:22;;;;;;;63.08;24.50;;;;;;;4.25;100.00;102047.06;5026155;28;20059;-83
2022/01/15 01:03:48;;;;;;;67.32;22.80;;;;;;;4.28;100.00;102050.34;5016357;28;20033;-80
2022/01/15 01:06:15;;;;;;;66.38;24.33;;;;;;;4.27;100.00;102046.00;5030919;28;20082;-83
2022/01/15 01:08:40;;;;;;;25.50;13.02;;;;;;;4.21;100.00;102024.25;5023940;28;20082;-80
2022/01/15 01:11:16;;;;;;;57.95;19.50;;;;;;;4.23;100.00;102027.66;5016157;28;20079;-80
2022/01/15 01:20:07;;;;;;;67.45;23.45;;;;;;;4.21;100.00;102019.81;5048316;28;20032;-78
2022/01/15 01:24:22;;;;;;;37.72;15.20;;;;;;;4.22;100.00;102010.84;5043020;28;20044;-80
2022/01/15 01:29:45;;;;;;;64.10;27.63;;;;;;;4.22;100.00;102005.53;5027330;28;20044;-79
2022/01/15 01:32:35;;;;;;;83.43;26.67;;;;;;;4.19;100.00;102000.41;5044386;28;20489;-78
2022/01/15 01:35:07;;;;;;;78.28;25.70;;;;;;;4.16;100.00;102012.13;5032648;28;20041;-81
2022/01/15 01:37:38;;;;;;;77.30;28.73;;;;;;;4.16;100.00;102014.78;5014255;28;20060;-80
2022/01/15 01:40:27;;;;;;;65.32;25.08;;;;;;;4.16;100.00;102012.13;5029284;28;20097;-79
2022/01/15 01:43:05;;;;;;;73.90;25.95;;;;;;;4.17;100.00;102004.97;5044749;28;20119;-82
2022/01/15 01:45:31;;;;;;;72.70;26.08;;;;;;;4.15;100.00;101999.78;5029741;28;20033;-87
2022/01/15 01:47:57;;;;;;;64.68;24.30;;;;;;;4.12;100.00;101991.13;5046879;28;20403;-84
2022/01/15 01:50:25;;;;;;;59.58;22.40;;;;;;;4.08;100.00;101982.50;5046401;28;20486;-81
2022/01/15 01:52:53;;;;;;;71.28;26.58;;;;;;;4.13;100.00;101990.19;5040634;28;20387;-83
2022/01/15 01:55:22;;;;;;;79.05;28.63;;;;;;;4.07;100.00;101975.47;5063123;28;20111;-77
2022/01/15 01:57:49;;;;;;;74.43;27.33;;;;;;;4.19;100.00;101992.44;5015443;28;20133;-79
2022/01/15 02:00:18;;;;;;;61.03;22.17;;;;;;;4.19;100.00;101984.44;5042201;28;20032;-85
2022/01/15 02:02:44;;;;;;;62.75;25.17;;;;;;;4.21;100.00;101985.19;5059990;28;20115;-81
2022/01/15 02:05:10;;;;;;;82.03;29.70;;;;;;;4.25;100.00;101988.50;5061265;28;20040;-81
2022/01/15 02:07:36;;;;;;;86.72;29.13;;;;;;;4.25;100.00;101989.34;5048824;28;20032;-80
2022/01/15 02:10:05;;;;;;;86.00;27.98;;;;;;;4.25;100.00;101981.34;5014720;28;20099;-80
2022/01/15 02:12:30;;;;;;;73.68;29.42;;;;;;;4.28;100.00;101986.47;5045283;28;20032;-79
2022/01/15 02:14:56;;;;;;;81.55;29.67;;;;;;;4.25;100.00;101983.16;5018959;28;20067;-85
2022/01/15 02:17:22;;;;;;;81.32;27.85;;;;;;;4.21;100.00;101965.69;5033291;28;20166;-80
2022/01/15 02:25:12;;;;;;;65.63;26.55;;;;;;;4.36;100.00;101977.94;5029826;28;20506;-81
2022/01/15 02:27:37;;;;;;;76.82;28.35;;;;;;;4.37;100.00;101972.53;5034832;28;20028;-82
2022/01/15 02:30:04;;;;;;;78.93;27.75;;;;;;;4.36;100.00;101970.81;5033506;28;20437;-80
2022/01/15 02:32:34;;;;;;;72.85;25.98;;;;;;;4.37;100.00;101969.03;5033164;28;20148;-82
2022/01/15 02:35:01;;;;;;;67.05;26.05;;;;;;;4.36;100.00;101969.97;5050270;28;20060;-81
2022/01/15 02:37:28;;;;;;;71.13;25.77;;;;;;;4.30;100.00;101954.41;5062834;28;20394;-84
2022/01/15 02:39:55;;;;;;;69.13;26.15;;;;;;;4.33;100.00;101949.72;5046012;28;20111;-80
2022/01/15 02:42:23;;;;;;;63.25;25.50;;;;;;;4.34;100.00;101939.91;5030225;28;20089;-81
2022/01/15 02:44:49;;;;;;;69.88;26.50;;;;;;;4.22;100.00;101915.00;5032241;28;20379;-82
2022/01/15 02:49:58;;;;;;;69.43;25.50;;;;;;;4.33;100.00;101939.06;5050498;28;20044;-83
2022/01/15 02:52:24;;;;;;;67.22;26.15;;;;;;;4.29;100.00;101929.59;5033069;28;20315;-78
2022/01/15 02:54:50;;;;;;;77.00;25.95;;;;;;;4.28;100.00;101914.56;5026217;28;20463;-78
2022/01/15 02:57:15;;;;;;;68.28;25.15;;;;;;;4.30;100.00;101922.47;5032067;28;20490;-79
2022/01/15 02:59:41;;;;;;;68.07;25.77;;;;;;;4.28;100.00;101916.38;5024824;28;20028;-81
2022/01/15 03:02:19;;;;;;;77.97;27.40;;;;;;;4.25;100.00;101909.47;5045072;28;20086;-82
2022/01/15 03:04:48;;;;;;;67.72;24.98;;;;;;;4.25;100.00;101901.47;5023680;28;20793;-79
2022/01/15 03:07:13;;;;;;;66.20;25.08;;;;;;;4.35;100.00;101899.88;5026076;28;20121;-79
2022/01/15 03:09:40;;;;;;;65.60;24.10;;;;;;;4.37;100.00;101907.78;5048019;28;20063;-81
2022/01/15 03:12:07;;;;;;;70.03;26.23;;;;;;;4.38;100.00;101902.31;5033063;28;20040;-84
2022/01/15 03:14:33;;;;;;;61.78;24.33;;;;;;;4.40;100.00;101892.44;5063292;28;20029;-79
2022/01/15 03:16:59;;;;;;;75.00;28.55;;;;;;;4.30;100.00;101878.03;5044304;28;20036;-83
2022/01/15 03:19:25;;;;;;;66.65;23.67;;;;;;;4.30;100.00;101891.34;5010117;28;20036;-80
2022/01/15 03:21:50;;;;;;;72.05;24.52;;;;;;;4.23;100.00;101884.75;5053478;28;20070;-81
2022/01/15 03:24:16;;;;;;;58.33;22.60;;;;;;;4.24;100.00;101886.47;5038383;28;20033;-80
2022/01/15 03:26:41;;;;;;;72.32;25.77;;;;;;;4.20;100.00;101884.97;5035461;28;20036;-80
2022/01/15 03:29:07;;;;;;;58.55;23.98;;;;;;;4.20;100.00;101884.97;5013337;28;20031;-83
2022/01/15 03:31:35;;;;;;;69.32;26.30;;;;;;;4.18;100.00;101876.22;5028060;28;20040;-78
2022/01/15 03:34:01;;;;;;;66.18;24.33;;;;;;;4.10;100.00;101862.59;5019324;28;20501;-80
2022/01/15 03:36:27;;;;;;;65.63;25.08;;;;;;;4.17;100.00;101878.03;5027475;28;20040;-79
2022/01/15 03:38:52;;;;;;;59.47;22.88;;;;;;;4.14;100.00;101869.44;5033858;28;20037;-78
2022/01/15 03:41:18;;;;;;;61.55;22.88;;;;;;;4.19;100.00;101867.31;5050207;28;20123;-80
2022/01/15 03:43:43;;;;;;;59.40;21.95;;;;;;;4.20;100.00;101863.66;5011643;28;20032;-80
2022/01/15 03:46:12;;;;;;;73.28;23.20;;;;;;;4.18;100.00;101862.91;5013876;28;20040;-80
2022/01/15 03:48:38;;;;;;;59.15;23.58;;;;;;;4.22;100.00;101855.59;5045810;28;20024;-77
2022/01/15 03:51:03;;;;;;;65.25;21.27;;;;;;;4.25;100.00;101858.03;5031991;28;20559;-81
2022/01/15 03:53:29;;;;;;;62.10;23.13;;;;;;;4.24;100.00;101851.88;5028859;28;20029;-82
2022/01/15 03:55:55;;;;;;;60.85;23.10;;;;;;;4.21;100.00;101849.44;5025159;28;20087;-79
2022/01/15 03:58:20;;;;;;;66.15;23.60;;;;;;;4.16;100.00;101846.22;5032212;28;20398;-78
2022/01/15 04:00:47;;;;;;;64.85;23.85;;;;;;;4.04;100.00;101834.63;5028837;28;20032;-81
2022/01/15 04:03:13;;;;;;;64.90;22.13;;;;;;;3.99;100.00;101835.91;5034252;28;20486;-81
2022/01/15 04:05:41;;;;;;;68.03;23.52;;;;;;;3.84;100.00;101817.38;5029132;28;20043;-81
2022/01/15 04:08:07;;;;;;;63.67;24.33;;;;;;;3.77;100.00;101818.75;5022746;28;20028;-79
2022/01/15 04:10:33;;;;;;;66.65;23.98;;;;;;;3.79;100.00;101822.19;5029482;28;20036;-78
2022/01/15 04:12:59;;;;;;;57.25;21.30;;;;;;;3.73;100.00;101814.59;5033674;28;20036;-79
2022/01/15 04:15:25;;;;;;;66.55;22.98;;;;;;;3.78;100.00;101812.47;5013162;28;20454;-78
2022/01/15 04:17:51;;;;;;;60.13;20.75;;;;;;;3.74;100.00;101813.66;5045718;28;20149;-80
2022/01/15 04:20:21;;;;;;;60.10;22.73;;;;;;;3.69;100.00;101805.97;5031210;28;20119;-79
2022/01/15 04:22:47;;;;;;;56.55;21.65;;;;;;;3.72;100.00;101802.25;5043680;28;20370;-82
2022/01/15 04:25:12;;;;;;;53.08;21.08;;;;;;;3.77;100.00;101801.94;5029074;28;20029;-79
2022/01/15 04:27:39;;;;;;;57.78;21.85;;;;;;;3.60;100.00;101765.84;5042822;28;21299;-81
2022/01/15 04:30:06;;;;;;;54.08;17.77;;;;;;;3.74;100.00;101797.69;5028835;28;20093;-81
2022/01/15 04:32:32;;;;;;;58.42;20.88;;;;;;;3.83;100.00;101798.84;5044134;28;20095;-80
2022/01/15 04:34:59;;;;;;;51.92;19.83;;;;;;;3.84;100.00;101797.91;5011551;28;20758;-79
2022/01/15 04:37:33;;;;;;;53.88;19.20;;;;;;;3.72;100.00;101773.00;5026151;28;20040;-80
2022/01/15 04:39:59;;;;;;;54.28;21.20;;;;;;;3.73;100.00;101774.69;5042079;28;20040;-78
2022/01/15 04:42:25;;;;;;;49.38;19.55;;;;;;;3.74;100.00;101785.25;5014628;28;20577;-80
2022/01/15 04:44:51;;;;;;;48.90;17.20;;;;;;;3.73;100.00;101783.56;5028329;28;20028;-79
2022/01/15 04:47:17;;;;;;;54.80;20.60;;;;;;;3.77;100.00;101781.53;5045584;28;20036;-77
2022/01/15 04:49:43;;;;;;;54.38;20.13;;;;;;;3.71;100.00;101771.31;5033270;28;20072;-81
2022/01/15 04:52:08;;;;;;;52.28;19.77;;;;;;;3.71;100.00;101777.47;5047582;28;20032;-79
2022/01/15 04:54:36;;;;;;;49.80;18.75;;;;;;;3.78;100.00;101783.22;5029257;28;20028;-79
2022/01/15 04:57:02;;;;;;;48.47;19.40;;;;;;;3.73;100.00;101772.03;5031749;28;20036;-81
2022/01/15 04:59:28;;;;;;;60.13;21.60;;;;;;;3.79;100.00;101784.94;5062183;28;20028;-78
2022/01/15 05:01:54;;;;;;;48.05;18.98;;;;;;;3.81;100.00;101783.03;5033600;28;20040;-80
2022/01/15 05:04:19;;;;;;;57.92;19.92;;;;;;;3.80;100.00;101775.97;5030764;28;20475;-78
2022/01/15 05:06:45;;;;;;;53.58;19.45;;;;;;;3.74;100.00;101752.47;5008105;28;20032;-77
2022/01/15 05:09:11;;;;;;;50.58;18.58;;;;;;;3.96;100.00;101779.25;5041487;28;20036;-81
2022/01/15 05:11:48;;;;;;;56.28;19.48;;;;;;;4.00;100.00;101781.72;5059747;28;20078;-80
2022/01/15 05:14:16;;;;;;;51.90;19.33;;;;;;;4.02;100.00;101779.78;5047467;28;20485;-79
2022/01/15 05:16:43;;;;;;;55.28;18.42;;;;;;;4.01;100.00;101781.59;5027217;28;20059;-84
2022/01/15 05:19:08;;;;;;;44.72;16.48;;;;;;;4.00;100.00;101773.75;5061034;28;20031;-80
2022/01/15 05:21:34;;;;;;;52.63;20.67;;;;;;;4.05;100.00;101772.47;5015013;28;20028;-79
2022/01/15 05:24:00;;;;;;;60.58;20.80;;;;;;;4.05;100.00;101774.25;5011076;28;20059;-81
2022/01/15 05:26:26;;;;;;;58.25;20.17;;;;;;;4.09;100.00;101778.41;5013249;28;20094;-79
2022/01/15 05:28:52;;;;;;;49.72;18.60;;;;;;;4.10;100.00;101766.78;5028233;28;20033;-81
2022/01/15 05:31:17;;;;;;;49.92;18.70;;;;;;;4.11;100.00;101768.50;5034140;28;20029;-81
2022/01/15 05:33:43;;;;;;;56.70;20.48;;;;;;;4.09;100.00;101765.09;5012100;28;20211;-78
2022/01/15 05:36:09;;;;;;;51.45;20.25;;;;;;;4.11;100.00;101771.16;5029212;28;20389;-81
2022/01/15 05:38:35;;;;;;;54.65;19.52;;;;;;;4.13;100.00;101770.09;5036820;28;20039;-79
2022/01/15 05:41:00;;;;;;;53.55;18.83;;;;;;;4.11;100.00;101753.38;5029985;28;20040;-78
2022/01/15 05:43:26;;;;;;;59.45;19.70;;;;;;;4.15;100.00;101757.53;5027719;28;20551;-81
2022/01/15 05:45:52;;;;;;;49.60;19.50;;;;;;;4.15;100.00;101769.97;5046177;28;21961;-80
2022/01/15 05:48:17;;;;;;;50.50;18.83;;;;;;;4.17;100.00;101749.44;5044001;28;20032;-77
2022/01/15 05:50:43;;;;;;;54.33;18.92;;;;;;;4.18;100.00;101748.47;5013630;28;20254;-79
2022/01/15 05:53:09;;;;;;;50.97;19.90;;;;;;;4.17;100.00;101744.09;5011763;28;20306;-81
2022/01/15 05:55:36;;;;;;;48.88;18.45;;;;;;;4.24;100.00;101755.19;5043042;28;20024;-78
2022/01/15 05:58:02;;;;;;;57.72;19.98;;;;;;;4.20;100.00;101749.22;5028262;28;20016;-80
2022/01/15 06:00:28;;;;;;;48.97;18.20;;;;;;;4.16;100.00;101745.06;5025308;28;20045;-80
2022/01/15 06:02:53;;;;;;;50.42;19.23;;;;;;;4.07;100.00;101735.06;5027342;28;20044;-82
2022/01/15 06:05:19;;;;;;;57.22;19.60;;;;;;;4.11;100.00;101741.91;5044944;28;20028;-79
2022/01/15 06:07:45;;;;;;;54.10;19.92;;;;;;;4.04;100.00;101730.81;5030459;28;20184;-78
2022/01/15 06:10:11;;;;;;;51.50;20.10;;;;;;;4.10;100.00;101753.47;5042218;28;20207;-79
2022/01/15 06:12:42;;;;;;;48.65;17.58;;;;;;;4.06;100.00;101738.72;5024523;28;20039;-80
2022/01/15 06:15:10;;;;;;;50.45;19.67;;;;;;;4.05;100.00;101737.88;5010934;28;20032;-80
2022/01/15 06:17:36;;;;;;;53.90;18.88;;;;;;;4.11;100.00;101739.22;5011460;28;20493;-83
2022/01/15 06:20:02;;;;;;;53.58;19.50;;;;;;;4.09;100.00;101728.69;5047110;28;20164;-78
2022/01/15 06:22:27;;;;;;;53.20;17.40;;;;;;;4.15;100.00;101736.25;5012612;28;20036;-79
2022/01/15 06:24:53;;;;;;;50.28;19.17;;;;;;;4.13;100.00;101732.84;5041892;28;20037;-78
2022/01/15 06:27:19;;;;;;;58.22;21.25;;;;;;;4.11;100.00;101733.91;5012922;28;20050;-85
2022/01/15 06:29:45;;;;;;;51.55;19.30;;;;;;;4.15;100.00;101730.03;5025687;28;20024;-80
2022/01/15 06:32:11;;;;;;;50.67;19.33;;;;;;;4.16;100.00;101739.75;5027995;28;20039;-78
2022/01/15 06:34:37;;;;;;;54.75;21.17;;;;;;;4.18;100.00;101740.47;5046185;28;20040;-79
2022/01/15 06:37:04;;;;;;;59.60;20.95;;;;;;;4.09;100.00;101719.84;5030876;28;20037;-82
2022/01/15 06:39:32;;;;;;;53.22;20.73;;;;;;;4.12;100.00;101739.09;5009522;28;20036;-79
2022/01/15 06:41:58;;;;;;;51.65;19.35;;;;;;;4.17;100.00;101738.78;5041300;28;20382;-82
2022/01/15 06:44:24;;;;;;;52.95;20.73;;;;;;;4.19;100.00;101734.19;5024642;28;20033;-83
2022/01/15 06:46:49;;;;;;;53.13;19.20;;;;;;;4.21;100.00;101739.41;5043574;28;20032;-80
2022/01/15 06:49:15;;;;;;;47.58;18.42;;;;;;;4.19;100.00;101736.88;5025304;28;20478;-78
2022/01/15 06:51:41;;;;;;;52.92;20.83;;;;;;;4.23;100.00;101730.34;5024088;28;20688;-83
2022/01/15 06:54:08;;;;;;;48.45;18.45;;;;;;;4.17;100.00;101731.63;5029029;28;20048;-77
2022/01/15 06:56:34;;;;;;;50.47;20.05;;;;;;;4.06;100.00;101707.63;5016666;28;20040;-80
2022/01/15 06:59:03;;;;;;;59.05;19.73;;;;;;;4.15;100.00;101727.38;5026966;28;20105;-80
2022/01/15 07:01:28;;;;;;;50.70;19.48;;;;;;;4.11;100.00;101725.91;5026146;28;20025;-78
2022/01/15 07:03:54;;;;;;;51.63;19.45;;;;;;;4.09;100.00;101717.19;5043791;28;20040;-78
2022/01/15 07:06:20;;;;;;;47.03;20.10;;;;;;;4.08;100.00;101723.50;5029455;28;20050;-80
2022/01/15 07:08:45;;;;;;;65.25;22.88;;;;;;;4.06;100.00;101720.06;5039605;28;20443;-82
2022/01/15 07:11:11;;;;;;;41.05;16.88;;;;;;;4.03;100.00;101715.81;5025441;28;22032;-78
2022/01/15 07:13:36;;;;;;;51.47;18.15;;;;;;;4.02;100.00;101714.09;5047008;28;20368;-77
2022/01/15 07:16:02;;;;;;;46.67;17.45;;;;;;;3.97;100.00;101709.13;5026703;28;20072;-78
2022/01/15 07:18:28;;;;;;;39.90;17.13;;;;;;;3.97;100.00;101713.63;5027311;28;20066;-82
2022/01/15 07:20:56;;;;;;;41.88;16.00;;;;;;;4.00;100.00;101712.53;5021969;28;20045;-78
2022/01/15 07:23:22;;;;;;;52.03;20.02;;;;;;;4.03;100.00;101707.00;5035532;28;22251;-79
2022/01/15 07:25:48;;;;;;;52.88;20.27;;;;;;;4.01;100.00;101706.25;5057848;28;20033;-83
2022/01/15 07:28:18;;;;;;;49.13;18.33;;;;;;;4.06;100.00;101704.09;5057739;28;20165;-79
2022/01/15 07:30:45;;;;;;;53.33;17.95;;;;;;;4.04;100.00;101706.03;5050395;28;20701;-80
2022/01/15 07:33:11;;;;;;;57.53;20.23;;;;;;;4.02;100.00;101707.94;5060720;28;20043;-79
2022/01/15 07:35:37;;;;;;;48.40;17.83;;;;;;;3.92;100.00;101679.34;5010780;28;20037;-80
2022/01/15 07:38:03;;;;;;;57.60;21.85;;;;;;;4.12;100.00;101695.66;5038888;28;20572;-84
2022/01/15 07:40:29;;;;;;;53.13;20.40;;;;;;;4.09;100.00;101691.41;5039095;28;20046;-82
2022/01/15 07:42:54;;;;;;;44.88;17.85;;;;;;;4.06;100.00;101688.13;5047308;28;20042;-79
2022/01/15 07:45:20;;;;;;;48.15;19.05;;;;;;;4.03;100.00;101681.22;5031390;28;20028;-80
2022/01/15 07:47:48;;;;;;;57.28;20.48;;;;;;;4.08;100.00;101678.25;5047001;28;20039;-80
2022/01/15 07:50:23;;;;;;;60.72;19.83;;;;;;;4.10;100.00;101670.97;5036702;28;20049;-81
2022/01/15 07:52:52;;;;;;;51.83;19.23;;;;;;;4.11;100.00;101672.69;5043634;28;20048;-78
2022/01/15 07:55:17;;;;;;;53.28;19.77;;;;;;;4.02;100.00;101662.69;5028415;28;20020;-78
2022/01/15 07:57:44;;;;;;;45.10;18.08;;;;;;;4.02;100.00;101668.03;5033835;28;20489;-82
2022/01/15 08:00:11;;;;;;;46.25;16.17;;;;;;;4.04;100.00;101671.44;5023607;28;20114;-80
2022/01/15 08:02:36;;;;;;;46.47;17.42;;;;;;;4.07;100.00;101665.88;5022145;28;20038;-80
2022/01/15 08:05:02;;;;;;;48.40;17.25;;;;;;;4.12;100.00;101658.41;5011002;28;20180;-83
2022/01/15 08:07:28;;;;;;;47.28;18.40;;;;;;;4.12;100.00;101656.59;5044834;28;20502;-78
2022/01/15 08:09:54;;;;;;;46.65;19.52;;;;;;;4.11;100.00;101659.38;5040512;28;20467;-83
2022/01/15 08:12:21;;;;;;;50.17;18.70;;;;;;;4.11;100.00;101667.38;5013132;28;20493;-80
2022/01/15 08:14:47;;;;;;;48.15;17.20;;;;;;;4.12;100.00;101663.72;5040867;28;20144;-79
2022/01/15 08:17:12;;;;;;;51.38;19.00;;;;;;;4.16;100.00;101667.88;5035870;28;20509;-79
2022/01/15 08:19:38;;;;;;;49.88;20.15;;;;;;;4.17;100.00;101659.78;5031106;28;20037;-81
2022/01/15 08:22:04;;;;;;;48.10;18.45;;;;;;;4.22;100.00;101659.44;5033651;28;20036;-78
2022/01/15 08:24:29;;;;;;;49.88;20.15;;;;;;;4.26;100.00;101663.59;5034773;28;20062;-82
2022/01/15 08:26:55;;;;;;;56.35;20.40;;;;;;;4.27;100.00;101651.13;5045232;28;20079;-81
2022/01/15 08:29:21;;;;;;;49.00;17.35;;;;;;;4.10;100.00;101631.06;5015040;28;20043;-84
2022/01/15 08:31:46;;;;;;;53.83;20.15;;;;;;;4.27;100.00;101646.66;5018850;28;20032;-83
2022/01/15 08:34:12;;;;;;;28.05;12.50;;;;;;;4.35;100.00;101659.41;5050278;28;20024;-82
2022/01/15 08:36:38;;;;;;;45.58;19.00;;;;;;;4.31;100.00;101653.47;5035620;28;20038;-79
2022/01/15 08:39:08;;;;;;;41.58;16.20;;;;;;;4.30;100.00;101653.56;5024380;28;20455;-77
2022/01/15 08:41:34;;;;;;;15.85;8.23;;;;;;;4.28;100.00;101651.00;5045488;28;20046;-80
2022/01/15 08:44:00;;;;;;;50.22;17.33;;;;;;;4.26;100.00;101654.72;5044540;28;20712;-80
2022/01/15 08:46:26;;;;;;;46.00;16.58;;;;;;;4.23;100.00;101645.16;5044653;28;20103;-80
2022/01/15 08:48:52;;;;;;;40.45;16.67;;;;;;;4.26;100.00;101662.72;5032571;28;20059;-79
2022/01/15 08:51:18;;;;;;;41.92;17.73;;;;;;;4.25;100.00;101658.38;5049110;28;20039;-80
2022/01/15 08:53:43;;;;;;;50.88;17.80;;;;;;;4.26;100.00;101658.28;5028340;28;20119;-79
2022/01/15 08:56:09;;;;;;;44.53;17.45;;;;;;;4.29;100.00;101662.53;5033453;28;20097;-80
2022/01/15 08:58:35;;;;;;;44.20;18.00;;;;;;;4.29;100.00;101659.84;5029862;28;20032;-79
2022/01/15 09:01:01;;;;;;;45.17;17.50;;;;;;;4.28;100.00;101655.47;5027339;28;20044;-79
2022/01/15 09:03:27;;;;;;;44.70;17.80;;;;;;;4.26;100.00;101654.72;5033588;28;20036;-79
2022/01/15 09:05:53;;;;;;;42.22;17.15;;;;;;;4.27;100.00;101651.13;5018070;28;20085;-79
2022/01/15 09:08:24;;;;;;;43.70;18.27;;;;;;;4.25;100.00;101653.03;5014424;28;20037;-79
2022/01/15 09:10:52;;;;;;;43.97;17.23;;;;;;;4.23;100.00;101639.00;5044976;28;20448;-77
2022/01/15 09:13:18;;;;;;;39.15;14.32;;;;;;;4.26;100.00;101650.28;5062820;28;20048;-79
2022/01/15 09:15:43;;;;;;;40.15;14.15;;;;;;;4.13;100.00;101622.88;5010464;28;20033;-85
2022/01/15 09:18:12;;;;;;;39.40;13.38;;;;;;;4.29;100.00;101644.72;5045031;28;20386;-79
2022/01/15 09:20:37;;;;;;;44.67;16.50;;;;;;;4.35;100.00;101648.75;5032931;28;20521;-80
2022/01/15 09:23:03;;;;;;;46.60;18.13;;;;;;;4.37;100.00;101650.31;5034686;28;20063;-81
2022/01/15 09:25:29;;;;;;;44.13;16.63;;;;;;;4.37;100.00;101641.50;5024795;28;20029;-82
2022/01/15 09:30:40;;;;;;;49.80;17.58;;;;;;;4.41;100.00;101646.47;5045551;28;20039;-80
2022/01/15 09:33:06;;;;;;;40.60;15.75;;;;;;;4.39;100.00;101636.88;5013136;28;20028;-78
2022/01/15 09:35:34;;;;;;;49.70;17.17;;;;;;;4.46;100.00;101640.78;5032325;28;20394;-79
2022/01/15 09:38:00;;;;;;;50.10;18.33;;;;;;;4.56;100.00;101646.28;5043700;28;20044;-81
2022/01/15 09:40:26;;;;;;;50.17;18.20;;;;;;;4.60;100.00;101637.09;5029146;28;20474;-80
2022/01/15 09:42:53;;;;;;;43.72;15.07;;;;;;;4.63;100.00;101643.06;5045573;28;20043;-78
2022/01/15 09:45:22;;;;;;;40.50;16.23;;;;;;;4.71;100.00;101650.47;5044041;28;20086;-79
2022/01/15 09:47:57;;;;;;;28.67;13.70;;;;;;;4.77;100.00;101643.84;5031934;28;20091;-80
2022/01/15 09:50:24;;;;;;;44.05;16.95;;;;;;;4.82;100.00;101650.50;5065918;28;20048;-80
2022/01/15 09:52:50;;;;;;;49.80;16.85;;;;;;;4.82;100.00;101645.19;5061554;28;20533;-81
2022/01/15 09:55:15;;;;;;;35.42;15.27;;;;;;;4.87;100.00;101643.97;5030770;28;20500;-77
2022/01/15 09:57:42;;;;;;;40.95;17.25;;;;;;;4.87;100.00;101636.84;5038673;28;20111;-78
2022/01/15 10:00:11;;;;;;;42.47;15.77;;;;;;;4.95;100.00;101645.09;5037322;28;20056;-78
2022/01/15 10:02:40;;;;;;;51.40;18.67;;;;;;;5.04;100.00;101641.72;5031797;28;20037;-79
2022/01/15 10:05:06;;;;;;;34.88;15.00;;;;;;;5.13;100.00;101634.81;5016731;28;20032;-79
2022/01/15 10:07:32;;;;;;;43.33;19.70;;;;;;;5.25;100.00;101643.69;5030457;28;20036;-79
2022/01/15 10:10:15;;;;;;;43.58;17.30;;;;;;;5.23;100.00;101629.63;5029869;28;20371;-79
2022/01/15 10:12:44;;;;;;;43.90;15.48;;;;;;;5.38;100.00;101643.59;5017328;28;20027;-77
2022/01/15 10:15:12;;;;;;;26.85;11.32;;;;;;;5.46;100.00;101639.34;5034310;28;20044;-81
2022/01/15 10:17:38;;;;;;;43.05;17.67;;;;;;;5.51;100.00;101639.81;5034880;28;20040;-81
2022/01/15 10:20:12;;;;;;;40.05;15.27;;;;;;;5.56;100.00;101623.47;5052030;28;20077;-78
2022/01/15 10:22:44;;;;;;;29.08;12.10;;;;;;;5.75;100.00;101638.84;5018522;28;20044;-80
2022/01/15 10:25:14;;;;;;;31.95;13.95;;;;;;;5.82;100.00;101632.06;5015565;28;20375;-78
2022/01/15 10:27:45;;;;;;;34.65;14.65;;;;;;;5.81;100.00;101619.66;5032376;28;20037;-84
2022/01/15 10:30:11;;;;;;;33.78;12.52;;;;;;;5.92;100.00;101626.78;5017974;28;20075;-81
2022/01/15 10:33:07;;;;;;;29.67;13.60;;;;;;;5.93;100.00;101623.16;5037927;28;20025;-79
2022/01/15 10:35:34;;;;;;;38.13;14.77;;;;;;;5.91;100.00;101617.94;5052675;28;20029;-79
2022/01/15 10:38:01;;;;;;;33.75;13.25;;;;;;;5.95;100.00;101626.56;5027229;28;20036;-82
2022/01/15 10:40:38;;;;;;;35.08;14.43;;;;;;;5.96;100.00;101622.94;5022635;28;20059;-80
2022/01/15 10:43:04;;;;;;;30.30;11.68;;;;;;;5.82;100.00;101588.47;5035671;28;20482;-81
2022/01/15 10:45:31;;;;;;;33.28;13.23;;;;;;;6.05;100.00;101624.84;5050976;28;20032;-80
2022/01/15 10:48:00;;;;;;;34.25;13.18;;;;;;;6.12;100.00;101625.22;5056487;28;20558;-80
2022/01/15 10:50:28;;;;;;;34.47;14.43;;;;;;;6.17;100.00;101623.03;5038441;28;20028;-80
2022/01/15 10:52:55;;;;;;;34.45;11.85;;;;;;;6.19;100.00;101623.72;5052684;28;20482;-80
2022/01/15 10:55:29;;;;;;;32.25;13.35;;;;;;;6.14;100.00;101616.09;5046176;28;20032;-81
2022/01/15 10:57:58;;;;;;;23.90;9.63;;;;;;;6.08;100.00;101605.91;5035233;28;20041;-80
2022/01/15 11:00:26;;;;;;;29.50;13.50;;;;;;;6.20;100.00;101624.59;5019928;28;20040;-79
2022/01/15 11:03:03;;;;;;;20.98;10.52;;;;;;;6.18;100.00;101619.38;5035685;28;20185;-79
2022/01/15 11:05:28;;;;;;;32.83;11.55;;;;;;;6.07;100.00;101598.03;5041940;28;20127;-79
2022/01/15 11:08:09;;;;;;;24.33;12.35;;;;;;;6.33;100.00;101627.94;5055646;28;20191;-79
2022/01/15 11:10:42;;;;;;;32.30;13.77;;;;;;;6.47;100.00;101619.63;5046253;28;20441;-80
2022/01/15 11:13:11;;;;;;;27.95;12.05;;;;;;;6.60;100.00;101622.97;5018877;28;20040;-81
2022/01/15 11:15:38;;;;;;;31.92;12.57;;;;;;;6.73;100.00;101621.94;5049507;28;20044;-81
2022/01/15 11:18:04;;;;;;;29.48;12.35;;;;;;;6.87;100.00;101613.59;5054677;28;20116;-80
2022/01/15 11:20:31;;;;;;;34.20;13.30;;;;;;;6.83;100.00;101596.13;5068897;28;20112;-80
2022/01/15 11:22:57;;;;;;;29.02;11.85;;;;;;;6.95;100.00;101605.75;5038494;28;20543;-80
2022/01/15 11:25:25;;;;;;;24.15;11.77;;;;;;;6.88;100.00;101583.22;5062991;28;20108;-81
2022/01/15 11:27:50;;;;;;;29.08;12.13;;;;;;;6.94;100.00;101604.06;5055501;28;20463;-80
2022/01/15 11:30:18;;;;;;;26.13;11.93;;;;;;;6.89;100.00;101592.91;5059043;28;20058;-81
2022/01/15 11:32:44;;;;;;;20.63;10.25;;;;;;;6.80;100.00;101578.53;5055134;28;20471;-79